Time;durP1;ratioP1;P1;durP2;ratioP2;P2;SDS_P1;SDS_P2;PMS_P1;PMS_P2;Temp;Humidity;BMP_temperature;BMP_pressure;BME280_temperature;BME280_humidity;BME280_pressure;Samples;Min_cycle;Max_cycle;Signal;HPM_P1;HPM_P2
2022/03/14 00:00:41;;;;;;;20.58;12.43;;;7.00;51.70;;;;;;4937905;28;20153;-65
2022/03/14 00:03:07;;;;;;;20.45;12.95;;;6.90;51.60;;;;;;4938131;28;20050;-65
2022/03/14 00:05:35;;;;;;;20.60;12.50;;;6.90;51.70;;;;;;4939144;28;20027;-66
2022/03/14 00:08:01;;;;;;;21.90;13.02;;;7.00;51.80;;;;;;4940147;28;20527;-65
2022/03/14 00:10:30;;;;;;;21.25;13.25;;;7.00;51.90;;;;;;4942414;28;20187;-65
2022/03/14 00:12:58;;;;;;;20.63;13.00;;;7.00;52.00;;;;;;4939371;28;20550;-65
2022/03/14 00:15:29;;;;;;;23.92;12.82;;;7.10;52.00;;;;;;4938640;28;20135;-65
2022/03/14 00:17:56;;;;;;;19.38;12.38;;;7.00;52.10;;;;;;4940614;28;20040;-65
2022/03/14 00:20:22;;;;;;;24.17;12.52;;;7.10;52.10;;;;;;4937024;28;20095;-66
2022/03/14 00:22:48;;;;;;;22.30;12.95;;;7.00;52.10;;;;;;4938267;28;20047;-64
2022/03/14 00:25:14;;;;;;;20.05;12.27;;;7.00;52.10;;;;;;4943902;28;20082;-63
2022/03/14 00:27:40;;;;;;;19.30;12.50;;;7.00;52.30;;;;;;4939457;28;20067;-65
2022/03/14 00:30:08;;;;;;;20.27;12.63;;;7.00;52.40;;;;;;4936628;28;20119;-65
2022/03/14 00:32:34;;;;;;;21.90;13.13;;;7.00;52.50;;;;;;4938124;28;20403;-65
2022/03/14 00:35:02;;;;;;;22.50;13.05;;;7.00;52.60;;;;;;4938949;28;20114;-65
2022/03/14 00:37:27;;;;;;;21.17;12.93;;;7.00;52.80;;;;;;4938056;28;20048;-65
2022/03/14 00:39:53;;;;;;;20.40;12.65;;;7.00;52.90;;;;;;4937752;28;20134;-65
2022/03/14 00:42:22;;;;;;;20.08;12.18;;;7.00;52.90;;;;;;4938489;28;20633;-65
2022/03/14 00:44:52;;;;;;;18.83;11.52;;;7.10;52.90;;;;;;4935893;28;20474;-65
2022/03/14 00:47:23;;;;;;;25.02;13.10;;;7.10;53.00;;;;;;4938851;28;20153;-66
2022/03/14 00:49:49;;;;;;;20.70;12.00;;;7.10;53.00;;;;;;4940524;28;20039;-65
2022/03/14 00:52:18;;;;;;;21.58;13.70;;;7.10;52.90;;;;;;4937538;28;20411;-65
2022/03/14 00:54:45;;;;;;;19.48;12.00;;;7.10;52.80;;;;;;4936607;28;20070;-66
2022/03/14 00:57:11;;;;;;;21.70;12.35;;;7.10;52.60;;;;;;4939227;28;21428;-65
2022/03/14 00:59:39;;;;;;;20.40;11.90;;;7.10;52.70;;;;;;4953381;28;20032;-66
2022/03/14 01:02:05;;;;;;;18.85;11.93;;;7.10;52.70;;;;;;4936057;28;20054;-65
2022/03/14 01:04:31;;;;;;;19.48;12.10;;;7.10;53.20;;;;;;4938362;28;20447;-64
2022/03/14 01:06:56;;;;;;;21.95;12.77;;;7.00;52.60;;;;;;4937387;28;20502;-65
2022/03/14 01:09:22;;;;;;;21.77;12.60;;;7.10;52.80;;;;;;4938917;28;20062;-65
2022/03/14 01:11:48;;;;;;;16.92;11.07;;;7.00;52.70;;;;;;4934262;28;20490;-66
2022/03/14 01:14:14;;;;;;;19.88;12.90;;;7.10;52.70;;;;;;4936366;28;20069;-65
2022/03/14 01:16:40;;;;;;;20.17;11.63;;;7.10;52.80;;;;;;4935087;28;20053;-65
2022/03/14 01:19:11;;;;;;;20.65;11.18;;;7.10;52.70;;;;;;4936542;28;20053;-65
2022/03/14 01:21:39;;;;;;;20.67;12.27;;;7.10;52.70;;;;;;4937801;28;20031;-65
2022/03/14 01:24:05;;;;;;;20.08;12.02;;;7.20;52.60;;;;;;4937813;28;20115;-65
2022/03/14 01:26:32;;;;;;;23.10;12.57;;;7.20;52.70;;;;;;4939915;28;20459;-65
2022/03/14 01:28:58;;;;;;;23.67;12.38;;;7.20;52.70;;;;;;4938003;28;20411;-66
2022/03/14 01:31:24;;;;;;;19.48;11.63;;;7.20;52.50;;;;;;4938189;28;20032;-66
2022/03/14 01:33:49;;;;;;;19.08;11.65;;;7.20;52.50;;;;;;4939381;28;20131;-65
2022/03/14 01:36:15;;;;;;;19.15;10.98;;;7.20;52.50;;;;;;4940297;28;20061;-65
2022/03/14 01:38:40;;;;;;;19.48;10.40;;;7.30;52.80;;;;;;4934892;28;20542;-65
2022/03/14 01:41:06;;;;;;;17.60;10.73;;;7.40;52.70;;;;;;4936570;28;20081;-66
2022/03/14 01:43:32;;;;;;;18.38;10.80;;;7.50;52.90;;;;;;4936258;28;20031;-65
2022/03/14 01:45:58;;;;;;;20.38;11.13;;;7.60;52.80;;;;;;4937782;28;20046;-66
2022/03/14 01:48:26;;;;;;;20.77;11.50;;;7.70;52.60;;;;;;4935145;28;20497;-65
2022/03/14 01:50:52;;;;;;;21.20;10.95;;;7.80;52.40;;;;;;4936124;28;20435;-66
2022/03/14 01:53:20;;;;;;;18.15;10.88;;;7.90;52.10;;;;;;4937915;28;20051;-65
2022/03/14 01:55:47;;;;;;;17.85;10.55;;;8.10;52.60;;;;;;4936415;28;20523;-66
2022/03/14 01:58:14;;;;;;;19.15;10.68;;;8.20;51.80;;;;;;4936509;28;20043;-64
2022/03/14 02:00:39;;;;;;;18.58;10.90;;;8.30;51.60;;;;;;4937316;28;20519;-65
2022/03/14 02:03:05;;;;;;;16.75;10.25;;;8.40;51.50;;;;;;4940191;28;20036;-65
2022/03/14 02:05:37;;;;;;;20.48;11.23;;;8.50;51.30;;;;;;4937746;28;20107;-66
2022/03/14 02:08:06;;;;;;;19.40;10.45;;;8.60;51.20;;;;;;4935074;28;20032;-65
2022/03/14 02:10:34;;;;;;;20.65;12.10;;;8.70;51.10;;;;;;4934992;28;20098;-66
2022/03/14 02:13:07;;;;;;;19.40;11.18;;;8.80;51.10;;;;;;4936944;28;20526;-64
2022/03/14 02:15:33;;;;;;;20.40;11.45;;;8.80;51.10;;;;;;4936456;28;20032;-66
2022/03/14 02:17:59;;;;;;;21.10;12.25;;;8.90;51.10;;;;;;4935750;28;20118;-66
2022/03/14 02:20:26;;;;;;;21.15;12.35;;;9.00;51.40;;;;;;4936030;28;20038;-65
2022/03/14 02:22:51;;;;;;;20.63;12.27;;;9.00;51.40;;;;;;4932766;28;20043;-65
2022/03/14 02:25:17;;;;;;;19.33;12.40;;;9.10;51.30;;;;;;4936768;28;20086;-65
2022/03/14 02:27:42;;;;;;;19.80;11.68;;;9.20;51.30;;;;;;4938417;28;20133;-66
2022/03/14 02:30:08;;;;;;;23.13;12.82;;;9.20;51.20;;;;;;4937126;28;20054;-65
2022/03/14 02:32:39;;;;;;;19.95;12.13;;;9.30;51.30;;;;;;4935880;28;20044;-66
2022/03/14 02:35:05;;;;;;;19.08;12.38;;;9.30;51.30;;;;;;4935990;28;20676;-66
2022/03/14 02:37:31;;;;;;;24.30;12.25;;;9.30;51.20;;;;;;4937977;28;20525;-66
2022/03/14 02:39:56;;;;;;;20.33;11.43;;;9.40;51.20;;;;;;4934368;28;20032;-66
2022/03/14 02:42:22;;;;;;;19.92;11.95;;;9.40;51.20;;;;;;4937325;28;20070;-65
2022/03/14 02:44:48;;;;;;;19.85;12.38;;;9.40;51.30;;;;;;4937087;28;20040;-65
2022/03/14 02:47:13;;;;;;;20.63;12.50;;;9.40;51.50;;;;;;4937259;28;20043;-65
2022/03/14 02:49:40;;;;;;;19.02;11.88;;;9.40;51.60;;;;;;4936699;28;20126;-66
2022/03/14 02:52:06;;;;;;;18.83;11.82;;;9.50;52.50;;;;;;4934862;28;20047;-66
2022/03/14 02:54:31;;;;;;;19.50;11.38;;;9.50;51.80;;;;;;4935656;28;20036;-65
2022/03/14 02:56:57;;;;;;;18.83;11.40;;;9.50;51.90;;;;;;4936357;28;20118;-65
2022/03/14 02:59:23;;;;;;;18.77;11.65;;;9.50;52.20;;;;;;4936205;28;20519;-65
2022/03/14 03:01:48;;;;;;;18.52;11.88;;;9.50;52.30;;;;;;4934090;28;20031;-65
2022/03/14 03:04:14;;;;;;;20.58;12.32;;;9.50;52.90;;;;;;4937180;28;20045;-65
2022/03/14 03:06:40;;;;;;;20.52;12.00;;;9.50;53.30;;;;;;4936004;28;20032;-66
2022/03/14 03:09:06;;;;;;;18.75;11.57;;;9.50;53.60;;;;;;4934225;28;20043;-65
2022/03/14 03:11:32;;;;;;;20.40;11.90;;;9.60;53.80;;;;;;4936686;28;20569;-65
2022/03/14 03:13:59;;;;;;;20.30;11.85;;;9.50;53.60;;;;;;4936293;28;20039;-65
2022/03/14 03:16:26;;;;;;;17.73;11.10;;;9.50;53.70;;;;;;4940678;28;20039;-65
2022/03/14 03:18:53;;;;;;;17.35;10.35;;;9.50;53.60;;;;;;4939462;28;20028;-66
2022/03/14 03:21:18;;;;;;;16.40;10.57;;;9.50;53.80;;;;;;4943836;28;20032;-66
2022/03/14 03:23:44;;;;;;;13.23;8.75;;;9.50;53.70;;;;;;4938985;28;20087;-66
2022/03/14 03:26:10;;;;;;;16.25;9.93;;;9.50;53.80;;;;;;4939141;28;20051;-66
2022/03/14 03:28:36;;;;;;;15.45;9.65;;;9.50;53.90;;;;;;4939552;28;20036;-66
2022/03/14 03:31:06;;;;;;;14.82;9.02;;;9.50;54.50;;;;;;4939314;28;20531;-65
2022/03/14 03:33:32;;;;;;;11.50;8.10;;;9.50;54.70;;;;;;4940824;28;20387;-64
2022/03/14 03:35:58;;;;;;;13.13;8.75;;;9.50;54.50;;;;;;4939848;28;20511;-65
2022/03/14 03:38:24;;;;;;;14.82;8.35;;;9.60;54.50;;;;;;4939673;28;20057;-66
2022/03/14 03:40:50;;;;;;;13.80;8.82;;;9.60;54.60;;;;;;4935840;28;20782;-65
2022/03/14 03:43:16;;;;;;;13.40;8.70;;;9.60;55.30;;;;;;4938355;28;20040;-63
2022/03/14 03:45:41;;;;;;;12.05;8.63;;;9.60;54.90;;;;;;4938054;28;20044;-65
2022/03/14 03:48:07;;;;;;;13.93;8.65;;;9.60;55.00;;;;;;4954265;28;20028;-66
2022/03/14 03:50:33;;;;;;;16.42;8.70;;;9.60;55.00;;;;;;4936824;28;20546;-63
2022/03/14 03:52:58;;;;;;;18.55;8.57;;;9.60;55.10;;;;;;4939140;28;20038;-66
2022/03/14 03:55:24;;;;;;;13.40;8.70;;;9.60;55.10;;;;;;4938278;28;20032;-66
2022/03/14 03:57:50;;;;;;;13.70;8.77;;;9.70;55.10;;;;;;4937600;28;20058;-65
2022/03/14 04:00:16;;;;;;;13.20;8.45;;;9.70;55.20;;;;;;4940452;28;20039;-65
2022/03/14 04:02:44;;;;;;;12.55;8.02;;;9.70;55.30;;;;;;4939770;28;20082;-65
2022/03/14 04:05:11;;;;;;;11.10;7.63;;;9.70;55.40;;;;;;4937749;28;20122;-65
2022/03/14 04:07:40;;;;;;;10.27;7.20;;;9.70;55.50;;;;;;4939145;28;20039;-66
2022/03/14 04:10:06;;;;;;;9.23;6.55;;;9.80;55.80;;;;;;4935979;28;20134;-65
2022/03/14 04:12:32;;;;;;;12.35;6.53;;;9.80;55.90;;;;;;4938976;28;20043;-65
2022/03/14 04:14:58;;;;;;;11.45;6.75;;;9.80;56.00;;;;;;4937816;28;20491;-65
2022/03/14 04:17:28;;;;;;;7.18;4.82;;;9.80;56.10;;;;;;4940962;28;20411;-66
2022/03/14 04:19:54;;;;;;;6.38;4.57;;;9.80;56.20;;;;;;4936258;28;20395;-66
2022/03/14 04:22:20;;;;;;;6.13;4.10;;;9.80;56.20;;;;;;4938013;28;20582;-66
2022/03/14 04:24:46;;;;;;;5.18;3.55;;;9.90;56.50;;;;;;4937515;28;20147;-65
2022/03/14 04:27:11;;;;;;;3.70;2.70;;;9.90;56.60;;;;;;4935866;28;20563;-65
2022/03/14 04:29:37;;;;;;;4.88;2.55;;;9.90;56.70;;;;;;4937649;28;20047;-66
2022/03/14 04:32:03;;;;;;;2.47;2.03;;;9.90;56.80;;;;;;4937315;28;20035;-65
2022/03/14 04:34:29;;;;;;;2.13;1.92;;;9.90;56.90;;;;;;4937548;28;20051;-65
2022/03/14 04:36:55;;;;;;;2.15;1.80;;;10.00;57.00;;;;;;4937371;28;20043;-66
2022/03/14 04:39:20;;;;;;;1.30;1.20;;;9.90;57.20;;;;;;4939468;28;20531;-66
2022/03/14 04:41:46;;;;;;;1.35;1.10;;;10.00;57.40;;;;;;4935364;28;20491;-65
2022/03/14 04:44:12;;;;;;;1.63;0.75;;;9.90;57.50;;;;;;4936661;28;20526;-66
2022/03/14 04:46:38;;;;;;;58.13;32.13;;;10.00;57.60;;;;;;4934125;28;20042;-65
2022/03/14 04:49:05;;;;;;;11.15;7.32;;;10.00;57.60;;;;;;4938729;28;20119;-66
2022/03/14 04:51:32;;;;;;;2.20;1.95;;;10.00;57.60;;;;;;4935972;28;20218;-65
2022/03/14 04:53:57;;;;;;;1.48;1.00;;;10.00;57.60;;;;;;4935135;28;20051;-65
2022/03/14 04:56:23;;;;;;;1.25;1.15;;;10.00;57.60;;;;;;4935941;28;20519;-65
2022/03/14 04:58:49;;;;;;;0.93;0.90;;;10.10;57.70;;;;;;4936664;28;20475;-65
2022/03/14 05:01:15;;;;;;;1.42;0.90;;;10.10;57.70;;;;;;4938297;28;20043;-66
2022/03/14 05:03:40;;;;;;;0.90;0.90;;;10.10;57.70;;;;;;4938781;28;20167;-66
2022/03/14 05:06:06;;;;;;;1.17;0.80;;;10.10;57.90;;;;;;4940648;28;20087;-66
2022/03/14 05:08:32;;;;;;;0.82;0.63;;;10.00;57.80;;;;;;4938802;28;20038;-66
2022/03/14 05:10:58;;;;;;;0.50;0.50;;;10.10;57.90;;;;;;4938350;28;20146;-65
2022/03/14 05:13:24;;;;;;;0.90;0.50;;;10.00;57.90;;;;;;4937836;28;20123;-66
2022/03/14 05:15:49;;;;;;;1.15;0.70;;;10.00;57.90;;;;;;4939161;28;20115;-65
2022/03/14 05:18:15;;;;;;;0.60;0.60;;;10.00;58.00;;;;;;4936822;28;20067;-65
2022/03/14 05:20:41;;;;;;;0.40;0.40;;;10.00;58.10;;;;;;4939775;28;20043;-65
2022/03/14 05:23:07;;;;;;;2.05;0.50;;;10.00;58.10;;;;;;4939409;28;20496;-65
2022/03/14 05:25:33;;;;;;;1.20;1.10;;;10.00;58.20;;;;;;4942900;28;20042;-66
2022/03/14 05:27:58;;;;;;;2.25;1.00;;;10.00;58.20;;;;;;4938077;28;20036;-65
2022/03/14 05:30:24;;;;;;;0.68;0.68;;;10.00;58.40;;;;;;4938164;28;20042;-65
2022/03/14 05:32:51;;;;;;;0.60;0.60;;;9.90;58.20;;;;;;4940207;28;20110;-65
2022/03/14 05:35:17;;;;;;;0.85;0.20;;;9.90;58.30;;;;;;4940338;28;20414;-66
2022/03/14 05:37:43;;;;;;;0.10;0.10;;;10.00;58.70;;;;;;4939721;28;20047;-65
2022/03/14 05:40:11;;;;;;;0.20;0.20;;;9.90;58.60;;;;;;4935601;29;20123;-66
2022/03/14 05:42:36;;;;;;;0.13;0.13;;;9.90;58.60;;;;;;4938130;28;20035;-66
2022/03/14 05:45:03;;;;;;;1.27;0.20;;;9.90;58.60;;;;;;4938264;28;20043;-66
2022/03/14 05:47:28;;;;;;;0.35;0.30;;;9.80;58.50;;;;;;4939073;28;20412;-65
2022/03/14 05:49:54;;;;;;;0.10;0.10;;;9.90;58.50;;;;;;4939942;28;20035;-65
2022/03/14 05:52:21;;;;;;;0.17;0.17;;;9.80;58.80;;;;;;4939663;28;20039;-65
2022/03/14 05:54:48;;;;;;;2.45;2.25;;;9.80;58.60;;;;;;4938299;28;20502;-65
2022/03/14 05:57:14;;;;;;;0.65;0.57;;;9.80;58.50;;;;;;4940404;28;20031;-65
2022/03/14 05:59:39;;;;;;;1.85;0.73;;;9.80;58.50;;;;;;4939476;28;20423;-65
2022/03/14 06:02:05;;;;;;;1.77;0.22;;;9.80;58.50;;;;;;4940023;28;20499;-65
2022/03/14 06:04:30;;;;;;;1.48;0.20;;;9.80;58.50;;;;;;4939237;28;20063;-65
2022/03/14 06:06:57;;;;;;;4.68;0.10;;;9.80;58.40;;;;;;4939048;28;20032;-66
2022/03/14 06:09:28;;;;;;;0.47;0.17;;;9.80;58.60;;;;;;4936693;28;20050;-65
2022/03/14 06:11:54;;;;;;;0.35;0.10;;;9.70;58.70;;;;;;4933858;28;20408;-65
2022/03/14 06:14:19;;;;;;;0.25;0.22;;;9.70;58.50;;;;;;4936021;28;20038;-66
2022/03/14 06:16:45;;;;;;;0.70;0.70;;;9.70;58.40;;;;;;4935336;28;20051;-65
2022/03/14 06:19:11;;;;;;;0.25;0.25;;;9.70;58.40;;;;;;4935896;28;20035;-65
2022/03/14 06:21:38;;;;;;;0.25;0.25;;;9.70;58.50;;;;;;4937610;28;20039;-65
2022/03/14 06:24:09;;;;;;;1.77;0.28;;;9.70;58.50;;;;;;4937256;28;20412;-65
2022/03/14 06:26:35;;;;;;;0.28;0.28;;;9.70;58.40;;;;;;4938183;28;20374;-65
2022/03/14 06:29:02;;;;;;;1.35;0.40;;;9.70;58.30;;;;;;4937301;28;20395;-64
2022/03/14 06:31:30;;;;;;;3.75;0.30;;;9.60;58.40;;;;;;4935823;28;20040;-64
2022/03/14 06:33:55;;;;;;;2.78;0.45;;;9.60;58.30;;;;;;4937178;28;20035;-65
2022/03/14 06:36:21;;;;;;;0.20;0.20;;;9.60;58.40;;;;;;4937891;28;21154;-66
2022/03/14 06:38:48;;;;;;;2.67;0.30;;;9.60;59.20;;;;;;4936767;28;20677;-64
2022/03/14 06:41:14;;;;;;;0.82;0.30;;;9.60;58.40;;;;;;4943250;28;20032;-65
2022/03/14 06:43:40;;;;;;;0.70;0.30;;;9.60;58.50;;;;;;4937810;28;20511;-66
2022/03/14 06:46:06;;;;;;;1.33;0.30;;;9.60;58.40;;;;;;4937774;28;20035;-65
2022/03/14 06:48:39;;;;;;;0.88;0.28;;;9.60;58.50;;;;;;4936959;28;20297;-63
2022/03/14 06:51:05;;;;;;;3.45;0.50;;;9.50;58.50;;;;;;4939737;28;20032;-65
2022/03/14 06:53:30;;;;;;;1.65;0.50;;;9.60;58.50;;;;;;4939952;28;20042;-65
2022/03/14 06:55:56;;;;;;;1.92;0.40;;;9.50;58.60;;;;;;4940357;28;20035;-65
2022/03/14 06:58:22;;;;;;;5.55;0.80;;;9.50;58.60;;;;;;4940302;28;20175;-64
2022/03/14 07:00:48;;;;;;;2.38;0.80;;;9.40;59.00;;;;;;4939385;28;20447;-65
2022/03/14 07:03:14;;;;;;;2.65;0.60;;;9.40;58.80;;;;;;4940317;28;20098;-65
2022/03/14 07:05:40;;;;;;;1.08;0.80;;;9.40;59.00;;;;;;4941329;28;20165;-65
2022/03/14 07:08:06;;;;;;;1.35;0.38;;;9.40;59.00;;;;;;4941548;28;20067;-65
2022/03/14 07:10:32;;;;;;;0.60;0.45;;;9.40;59.00;;;;;;4936634;28;20040;-65
2022/03/14 07:12:57;;;;;;;0.68;0.40;;;9.40;59.20;;;;;;4939263;28;20070;-63
2022/03/14 07:15:25;;;;;;;0.50;0.38;;;9.40;59.30;;;;;;4941187;28;20044;-64
2022/03/14 07:17:52;;;;;;;1.73;0.50;;;9.50;59.80;;;;;;4940974;28;20388;-66
2022/03/14 07:20:19;;;;;;;0.98;0.75;;;9.50;59.80;;;;;;4935596;28;20103;-65
2022/03/14 07:22:48;;;;;;;1.88;0.43;;;9.50;59.90;;;;;;4938772;28;20036;-65
2022/03/14 07:25:14;;;;;;;0.52;0.40;;;9.50;59.90;;;;;;4939212;28;20436;-66
2022/03/14 07:27:39;;;;;;;2.67;0.93;;;9.50;59.80;;;;;;4941893;28;20045;-65
2022/03/14 07:30:06;;;;;;;1.27;0.52;;;9.60;59.90;;;;;;4939919;28;20032;-64
2022/03/14 07:32:32;;;;;;;0.98;0.40;;;9.60;59.60;;;;;;4942029;28;20098;-65
2022/03/14 07:34:57;;;;;;;2.67;0.57;;;9.60;59.70;;;;;;4942596;28;20479;-65
2022/03/14 07:37:23;;;;;;;0.75;0.57;;;9.70;59.80;;;;;;4942863;28;20036;-66
2022/03/14 07:39:49;;;;;;;1.35;1.00;;;9.70;59.70;;;;;;4942120;28;20043;-65
2022/03/14 07:42:15;;;;;;;1.00;0.60;;;9.70;59.40;;;;;;4943237;28;20553;-65
2022/03/14 07:44:41;;;;;;;1.73;0.40;;;9.80;59.30;;;;;;4942736;28;20423;-65
2022/03/14 07:47:10;;;;;;;2.17;0.40;;;9.80;59.20;;;;;;4941725;28;20036;-65
2022/03/14 07:49:36;;;;;;;1.73;0.60;;;9.90;59.30;;;;;;4942408;28;20042;-65
2022/03/14 07:52:02;;;;;;;0.73;0.40;;;9.90;59.30;;;;;;4943231;28;20043;-65
2022/03/14 07:54:28;;;;;;;1.25;0.50;;;10.00;59.50;;;;;;4941479;28;20494;-65
2022/03/14 07:56:54;;;;;;;0.52;0.50;;;10.10;59.50;;;;;;4942460;28;20048;-65
2022/03/14 07:59:19;;;;;;;2.50;0.30;;;10.10;59.70;;;;;;4941214;28;20046;-65
2022/03/14 08:01:45;;;;;;;0.30;0.30;;;10.10;59.30;;;;;;4938715;28;20035;-65
2022/03/14 08:04:10;;;;;;;1.85;0.60;;;10.20;59.10;;;;;;4937864;28;21185;-65
2022/03/14 08:06:41;;;;;;;0.52;0.50;;;10.20;58.90;;;;;;4939533;28;20115;-66
2022/03/14 08:09:08;;;;;;;1.45;0.38;;;10.20;59.00;;;;;;4940523;28;20531;-66
2022/03/14 08:11:35;;;;;;;0.35;0.35;;;10.30;58.90;;;;;;4937641;28;20325;-66
2022/03/14 08:14:02;;;;;;;0.30;0.30;;;10.40;59.00;;;;;;4951113;28;20063;-66
2022/03/14 08:16:28;;;;;;;0.30;0.30;;;10.40;59.00;;;;;;4939254;28;21301;-65
2022/03/14 08:18:53;;;;;;;2.90;0.40;;;10.40;58.70;;;;;;4938232;28;20035;-65
2022/03/14 08:21:19;;;;;;;0.28;0.28;;;10.50;58.80;;;;;;4937818;28;20114;-66
2022/03/14 08:23:46;;;;;;;1.08;0.20;;;10.50;58.50;;;;;;4936816;28;20115;-65
2022/03/14 08:26:12;;;;;;;0.35;0.30;;;10.60;58.40;;;;;;4937207;28;20031;-66
2022/03/14 08:28:40;;;;;;;1.85;0.40;;;10.60;58.20;;;;;;4936465;28;20035;-65
2022/03/14 08:31:06;;;;;;;1.98;0.50;;;10.70;58.10;;;;;;4938799;28;20069;-66
2022/03/14 08:33:32;;;;;;;0.40;0.40;;;10.70;58.30;;;;;;4937707;28;20414;-66
2022/03/14 08:36:00;;;;;;;0.32;0.32;;;10.80;58.30;;;;;;4939745;28;20035;-66
2022/03/14 08:38:26;;;;;;;1.08;0.30;;;10.80;58.10;;;;;;4939110;28;20138;-64
2022/03/14 08:40:52;;;;;;;0.50;0.30;;;10.90;57.90;;;;;;4939846;28;20907;-65
2022/03/14 08:43:18;;;;;;;0.65;0.30;;;10.90;57.70;;;;;;4937754;28;20267;-65
2022/03/14 08:45:45;;;;;;;0.75;0.40;;;10.90;57.60;;;;;;4938620;28;20041;-65
2022/03/14 08:48:14;;;;;;;0.65;0.25;;;10.90;57.60;;;;;;4939374;28;20114;-64
2022/03/14 08:50:40;;;;;;;1.52;0.30;;;11.00;57.50;;;;;;4939627;28;20041;-65
2022/03/14 08:53:07;;;;;;;0.20;0.20;;;11.00;57.00;;;;;;4939064;28;20039;-66
2022/03/14 08:55:32;;;;;;;1.83;0.30;;;11.00;57.00;;;;;;4938232;28;20578;-65
2022/03/14 08:57:58;;;;;;;0.30;0.30;;;11.10;57.00;;;;;;4939329;28;20130;-65
2022/03/14 09:00:24;;;;;;;0.45;0.30;;;11.10;57.00;;;;;;4935814;28;20032;-66
2022/03/14 09:02:50;;;;;;;0.75;0.20;;;11.10;56.70;;;;;;4939904;28;20075;-65
2022/03/14 09:05:17;;;;;;;1.88;0.20;;;11.20;56.50;;;;;;4938874;28;20054;-65
2022/03/14 09:07:42;;;;;;;0.20;0.20;;;11.20;56.30;;;;;;4940062;28;20039;-66
2022/03/14 09:10:12;;;;;;;1.58;0.20;;;11.30;56.10;;;;;;4939002;28;20054;-65
2022/03/14 09:12:39;;;;;;;0.30;0.20;;;11.30;55.90;;;;;;4937347;28;20039;-66
2022/03/14 09:15:07;;;;;;;0.38;0.10;;;11.30;55.60;;;;;;4938753;28;20054;-65
2022/03/14 09:17:32;;;;;;;0.35;0.20;;;11.40;55.60;;;;;;4938090;28;20039;-65
2022/03/14 09:20:01;;;;;;;0.85;0.10;;;11.40;55.40;;;;;;4939397;28;20036;-66
2022/03/14 09:22:27;;;;;;;0.30;0.20;;;11.40;55.30;;;;;;4937576;28;20126;-65
2022/03/14 09:24:54;;;;;;;1.50;0.20;;;11.40;55.20;;;;;;4938208;28;20039;-65
2022/03/14 09:27:19;;;;;;;1.27;0.20;;;11.50;55.10;;;;;;4938774;28;20130;-65
2022/03/14 09:29:45;;;;;;;0.63;0.15;;;11.50;54.50;;;;;;4937553;28;20506;-65
2022/03/14 09:32:13;;;;;;;0.30;0.10;;;11.50;54.40;;;;;;4934772;28;20050;-66
2022/03/14 09:34:39;;;;;;;0.70;0.15;;;11.50;54.40;;;;;;4935953;28;20031;-63
2022/03/14 09:37:05;;;;;;;0.20;0.20;;;11.50;54.50;;;;;;4934520;28;20070;-65
2022/03/14 09:39:32;;;;;;;0.50;0.10;;;11.50;54.60;;;;;;4936287;28;20027;-65
2022/03/14 09:42:00;;;;;;;0.20;0.20;;;11.50;54.70;;;;;;4938030;28;20040;-66
2022/03/14 09:44:28;;;;;;;1.38;0.20;;;11.50;54.50;;;;;;4935527;28;20094;-64
2022/03/14 09:46:58;;;;;;;0.52;0.20;;;11.50;54.30;;;;;;4939608;28;20130;-65
2022/03/14 09:49:26;;;;;;;1.00;0.52;;;11.50;54.40;;;;;;4937367;28;20526;-66
2022/03/14 09:51:53;;;;;;;1.10;0.47;;;11.60;54.70;;;;;;4945147;28;20046;-65
2022/03/14 09:54:21;;;;;;;3.13;0.40;;;11.60;54.70;;;;;;4937640;28;20039;-65
2022/03/14 09:56:47;;;;;;;0.50;0.20;;;11.60;54.60;;;;;;4938944;28;20094;-65
2022/03/14 09:59:13;;;;;;;0.60;0.30;;;11.70;54.50;;;;;;4938016;28;20560;-65
2022/03/14 10:01:40;;;;;;;0.43;0.20;;;11.80;54.60;;;;;;4937202;28;20066;-65
2022/03/14 10:04:08;;;;;;;0.73;0.40;;;11.80;54.30;;;;;;4939305;28;20370;-66
2022/03/14 10:06:36;;;;;;;1.58;0.20;;;11.90;54.00;;;;;;4937802;28;20031;-65
2022/03/14 10:09:03;;;;;;;1.02;0.38;;;12.00;53.90;;;;;;4937614;28;20062;-66
2022/03/14 10:11:29;;;;;;;0.60;0.30;;;12.10;53.90;;;;;;4935311;28;20090;-66
2022/03/14 10:13:54;;;;;;;0.57;0.30;;;12.20;53.60;;;;;;4936844;28;20035;-65
2022/03/14 10:16:20;;;;;;;0.63;0.25;;;12.20;53.50;;;;;;4936599;28;22017;-65
2022/03/14 10:18:52;;;;;;;0.20;0.20;;;12.30;53.40;;;;;;4936915;28;20051;-65
2022/03/14 10:21:28;;;;;;;2.40;0.60;;;12.40;52.90;;;;;;4938817;28;20035;-66
2022/03/14 10:23:58;;;;;;;6.47;0.40;;;12.50;52.90;;;;;;4943793;28;20392;-66
2022/03/14 10:26:25;;;;;;;0.80;0.20;;;12.60;52.70;;;;;;4937366;28;20047;-66
2022/03/14 10:28:56;;;;;;;1.15;0.30;;;12.60;52.10;;;;;;4939375;28;20138;-66
2022/03/14 10:31:48;;;;;;;0.68;0.30;;;12.70;52.00;;;;;;4936724;28;20114;-65
2022/03/14 10:34:15;;;;;;;1.60;0.20;;;12.80;51.90;;;;;;4936747;28;20525;-65
2022/03/14 10:36:46;;;;;;;0.68;0.20;;;12.90;52.00;;;;;;4937361;28;20081;-66
2022/03/14 10:39:11;;;;;;;2.35;0.38;;;12.90;51.80;;;;;;4935282;28;20035;-66
2022/03/14 10:41:39;;;;;;;1.65;0.47;;;13.00;51.60;;;;;;4938453;28;20578;-65
2022/03/14 10:44:04;;;;;;;1.38;0.52;;;13.00;51.40;;;;;;4936322;28;20027;-65
2022/03/14 10:46:30;;;;;;;1.40;0.38;;;13.00;51.40;;;;;;4940095;28;20035;-67
2022/03/14 10:48:55;;;;;;;0.40;0.20;;;13.10;51.20;;;;;;4937675;28;20196;-65
2022/03/14 10:51:22;;;;;;;2.30;0.40;;;13.20;51.00;;;;;;4938348;28;20396;-66
2022/03/14 10:53:48;;;;;;;4.45;0.40;;;13.20;50.80;;;;;;4938079;28;20116;-65
2022/03/14 10:56:16;;;;;;;0.30;0.30;;;13.20;50.50;;;;;;4938239;28;20146;-66
2022/03/14 10:58:43;;;;;;;8.10;0.73;;;13.20;50.70;;;;;;4934986;28;20039;-65
2022/03/14 11:01:10;;;;;;;1.20;0.25;;;13.30;50.60;;;;;;4938339;28;20027;-66
2022/03/14 11:03:41;;;;;;;0.40;0.20;;;13.40;50.70;;;;;;4935014;28;20047;-66
2022/03/14 11:06:11;;;;;;;1.45;0.22;;;13.40;50.00;;;;;;4938585;28;20028;-66
2022/03/14 11:08:42;;;;;;;0.65;0.30;;;13.50;50.40;;;;;;4935414;28;20040;-64
2022/03/14 11:11:22;;;;;;;0.38;0.20;;;13.60;50.10;;;;;;4934949;28;20087;-66
2022/03/14 11:13:48;;;;;;;2.63;0.40;;;13.70;49.50;;;;;;4938514;28;20076;-65
2022/03/14 11:16:21;;;;;;;2.05;0.20;;;13.80;49.50;;;;;;4936455;28;20039;-66
2022/03/14 11:18:47;;;;;;;0.28;0.20;;;13.90;48.60;;;;;;4935810;28;20050;-66
2022/03/14 11:21:15;;;;;;;0.52;0.20;;;13.90;49.00;;;;;;4938092;28;20384;-66
2022/03/14 11:23:45;;;;;;;2.97;0.35;;;14.00;49.10;;;;;;4937209;28;20046;-66
2022/03/14 11:26:11;;;;;;;0.65;0.30;;;14.10;48.80;;;;;;4937996;28;20043;-66
2022/03/14 11:28:41;;;;;;;0.47;0.20;;;14.10;48.90;;;;;;4934956;28;20043;-66
2022/03/14 11:31:07;;;;;;;1.10;0.20;;;14.20;47.80;;;;;;4938496;28;20036;-66
2022/03/14 11:33:37;;;;;;;0.50;0.20;;;14.20;47.40;;;;;;4937281;28;20506;-66
2022/03/14 11:36:05;;;;;;;0.55;0.28;;;14.20;47.00;;;;;;4938565;28;20757;-66
2022/03/14 11:38:31;;;;;;;0.35;0.20;;;14.30;46.90;;;;;;4939881;28;20036;-65
2022/03/14 11:40:58;;;;;;;0.22;0.20;;;14.30;46.70;;;;;;4940296;28;20024;-66
2022/03/14 11:43:24;;;;;;;0.73;0.20;;;14.30;46.10;;;;;;4939836;28;20452;-66
2022/03/14 11:45:51;;;;;;;0.22;0.22;;;14.30;46.50;;;;;;4940509;28;20119;-66
2022/03/14 11:48:19;;;;;;;0.50;0.30;;;14.20;46.90;;;;;;4940973;28;20032;-65
2022/03/14 11:50:49;;;;;;;3.58;0.40;;;14.30;46.50;;;;;;4937953;28;20043;-66
2022/03/14 11:53:19;;;;;;;0.63;0.30;;;14.30;46.50;;;;;;4940338;28;20040;-66
2022/03/14 11:56:04;;;;;;;0.57;0.30;;;14.30;46.60;;;;;;4940025;28;20511;-65
2022/03/14 11:58:36;;;;;;;1.02;0.40;;;14.30;45.70;;;;;;4939129;28;20039;-66
2022/03/14 12:01:23;;;;;;;1.95;0.40;;;14.30;46.30;;;;;;4940468;28;20048;-66
2022/03/14 12:03:59;;;;;;;0.35;0.30;;;14.40;45.70;;;;;;4945595;28;20403;-66
2022/03/14 12:06:47;;;;;;;2.00;0.40;;;14.40;45.30;;;;;;4937454;28;20249;-66
2022/03/14 12:09:25;;;;;;;0.57;0.30;;;14.40;45.30;;;;;;4939088;28;20542;-66
2022/03/14 12:12:28;;;;;;;2.15;0.35;;;14.40;45.80;;;;;;4938690;28;20538;-66
2022/03/14 12:14:59;;;;;;;2.05;0.40;;;14.50;45.40;;;;;;4926764;29;20032;-66
2022/03/14 12:17:26;;;;;;;3.13;0.30;;;14.50;45.60;;;;;;4939763;28;20067;-66
2022/03/14 12:19:59;;;;;;;0.77;0.30;;;14.50;44.70;;;;;;4941656;28;20055;-65
2022/03/14 12:22:32;;;;;;;2.75;1.55;;;14.60;44.90;;;;;;4939144;28;20062;-65
2022/03/14 12:25:04;;;;;;;1.05;0.50;;;14.60;45.40;;;;;;4938853;28;20055;-66
2022/03/14 12:27:36;;;;;;;5.85;3.25;;;14.60;45.80;;;;;;4939998;28;20032;-66
2022/03/14 12:30:06;;;;;;;1.10;0.60;;;14.70;45.50;;;;;;4940874;28;20033;-66
2022/03/14 12:32:34;;;;;;;1.67;0.50;;;14.70;45.40;;;;;;4938737;28;20051;-66
2022/03/14 12:35:12;;;;;;;1.88;0.47;;;14.80;45.60;;;;;;4941165;28;20043;-66
2022/03/14 12:37:47;;;;;;;0.30;0.20;;;14.90;45.30;;;;;;4938652;28;20079;-66
2022/03/14 12:40:18;;;;;;;1.20;0.40;;;14.90;44.90;;;;;;4941631;28;20043;-65
2022/03/14 12:42:47;;;;;;;0.57;0.50;;;15.00;44.30;;;;;;4939076;28;20039;-66
2022/03/14 12:45:42;;;;;;;2.88;0.40;;;15.00;44.60;;;;;;4938102;28;20587;-66